Mono Hot Springs, California
Current Conditions -  °F | °C
As of 12:55 PM on Friday 19 Dec 2014 (Local Time) from KMMH Reporting Station
Clear Clear  
Wind Chill: 37°   Ceiling: Unl
Heat Index: 45°   Visibility: 10mi
Dew Point: 19°   Wind: 18mph
Humidity: 37%   Direction: 210°SSW
Pressure: 30.14"   Gusts: 28mph
Location:  37.33°N, 119.02°W
Report Text: KMMH 192055Z AUTO 21016G24KT 10SM CLR 07/M07 A3014 RMK AO1
Loading
Personal Weather Stations






























Interactive Weather Map New forecast layout! Learn more

10-Day Weather Forecast

Advertisements
Track Severe Weather on mobile